Bell Island, Canada
Current Conditions -  °F | °C
As of 7:00 AM on Sunday 23 Nov 2014 (Local Time) from CYYT Reporting Station
Overcast Overcast  
Wind Chill: 22°   Ceiling: 2000
Heat Index: 32°   Visibility: 15mi
Dew Point: 28°   Wind: 15mph
Humidity: 87%   Direction: 250°WSW
Pressure: 29.69"   Gusts: 23mph
Location:  47.65°N, 52.93°W
Report Text: CYYT 231000Z 25013G20KT 15SM OVC020 00/M02 A2969 RMK SC8 SLP063
Loading
Personal Weather Stations






























Interactive Weather Map New forecast layout! Learn more

10-Day Weather Forecast

Advertisements
Track Severe Weather on mobile